Terminal Aerodrome Forecast
Issued by NWS

Home | Current Version | Previous Version | Text Only | Print | Product List | Glossary On
Versions: 1 2 3 4 5 6 7 8 9 10 11 12 13 14 15 16 17 18 19 20 21 22 23
000
FTUS41 KOKX 111100
TAFSWF
TAF
KSWF 111122Z 1112/1218 VRB03KT P6SM SCT100
     FM111500 04006KT P6SM FEW050
     FM111800 VRB04KT P6SM FEW050
     FM120300 00000KT P6SM SKC
     FM121400 VRB04KT P6SM FEW050
      AMD NOT SKED=

USA.gov is the U.S. government's official web portal to all federal, state and local government web resources and services.